Strona główna
METAR-TAF:

METAR-TAF

Lotnisko :

Mossoró, Rio Grande do Norte, Brazylia

Szerokość geograficzna: 05-12S, Długość geograficzna: 037-22W, wysokość: 23 m

Aktualna obserwacja pogody

Raport powstał 31 minut temu, godzina 19:00 UTC
Wiatr 4 kt od południowy zachód
Temperatura 30°C
Wilgotność 70%
Ciśnienie 1011 hPa
Widzialność 10 km lub więcej
Przerywane chmury na wysokości 2500 ft

METAR: SBMS 301900Z 22004KT 9999 BKN025 30/24 Q1011

czas: 16:31 (19:31 UTC)


TAF: brakujący

Obserwacja i prognoza pogody dla ponad 4000 lotnisk (raport METAR i TAF).

Dostępne stacje oznaczono żółtymi i czerwonymi punktami na mapie.

Najedź kursorem aby zobaczyć nazwę stacji.

Kliknij aby zobaczyć obserwacje i prognozy pogody.

Aby zmienić mapę: kliknij na zielony przycisk z czarnym krzyżykiem, aby powiększyć; na zielony przycisk z myślnikiem, aby pomniejszyć; na zielone strzałki, aby przejść do map sąsiednich.


METAR-TAF: